createdAt,value
2022-10-06T00:01:28.388Z,97615.81
2022-10-06T00:03:54.762Z,97619.44
2022-10-06T00:06:21.085Z,97615.69
2022-10-06T00:08:47.490Z,97614.47
2022-10-06T00:11:14.996Z,97619.75
2022-10-06T00:13:41.850Z,97617.75
2022-10-06T00:16:12.356Z,97619.47
2022-10-06T00:18:38.815Z,97616.19
2022-10-06T00:21:05.353Z,97628.81
2022-10-06T00:23:31.951Z,97629.00
2022-10-06T00:25:58.581Z,97637.72
2022-10-06T00:28:25.636Z,97634.09
2022-10-06T00:30:53.574Z,97644.59
2022-10-06T00:33:20.093Z,97637.84
2022-10-06T00:35:46.464Z,97641.25
2022-10-06T00:38:13.633Z,97647.34
2022-10-06T00:40:44.542Z,97643.88
2022-10-06T00:43:30.804Z,97645.84
2022-10-06T00:45:57.444Z,97640.41
2022-10-06T00:48:25.961Z,97637.78
2022-10-06T00:50:54.070Z,97641.84
2022-10-06T00:53:21.198Z,97643.16
2022-10-06T00:55:48.007Z,97643.59
2022-10-06T00:58:14.832Z,97647.88
2022-10-06T01:00:43.105Z,97643.91
2022-10-06T01:03:12.034Z,97637.28
2022-10-06T01:05:43.600Z,97646.13
2022-10-06T01:08:09.945Z,97649.16
2022-10-06T01:10:36.282Z,97655.50
2022-10-06T01:13:02.773Z,97650.84
2022-10-06T01:15:29.245Z,97655.13
2022-10-06T01:18:01.093Z,97652.66
2022-10-06T01:20:29.339Z,97667.59
2022-10-06T01:22:57.495Z,97663.00
2022-10-06T01:25:23.992Z,97663.69
2022-10-06T01:27:53.709Z,97662.84
2022-10-06T01:30:28.548Z,97660.28
2022-10-06T01:32:55.024Z,97670.94
2022-10-06T01:35:21.754Z,97662.16
2022-10-06T01:37:48.122Z,97664.03
2022-10-06T01:40:14.588Z,97665.75
2022-10-06T01:42:40.911Z,97670.50
2022-10-06T01:45:07.560Z,97670.19
2022-10-06T01:47:34.550Z,97672.50
2022-10-06T01:50:00.891Z,97676.63
2022-10-06T01:52:27.347Z,97677.84
2022-10-06T01:54:53.920Z,97678.00
2022-10-06T01:57:21.365Z,97681.38
2022-10-06T01:59:51.548Z,97686.47
2022-10-06T02:02:20.977Z,97682.50
2022-10-06T02:04:47.652Z,97682.69
2022-10-06T02:07:13.964Z,97688.75
2022-10-06T02:09:40.334Z,97685.75
2022-10-06T02:12:06.663Z,97685.75
2022-10-06T02:14:34.242Z,97688.53
2022-10-06T02:17:00.926Z,97685.38
2022-10-06T02:19:27.270Z,97694.19
2022-10-06T02:21:53.906Z,97693.75
2022-10-06T02:24:20.211Z,97688.53
2022-10-06T02:26:46.792Z,97683.28
2022-10-06T02:29:13.108Z,97692.41
2022-10-06T02:31:39.526Z,97689.41
2022-10-06T02:34:05.881Z,97697.25
2022-10-06T02:36:32.449Z,97707.13
2022-10-06T02:38:58.755Z,97701.34
2022-10-06T02:41:25.668Z,97705.50
2022-10-06T02:43:53.669Z,97709.88
2022-10-06T02:46:20.154Z,97710.75
2022-10-06T02:48:46.896Z,97719.00
2022-10-06T02:51:15.628Z,97719.31
2022-10-06T02:53:42.630Z,97720.38
2022-10-06T02:56:13.159Z,97719.97
2022-10-06T02:58:40.008Z,97728.31
2022-10-06T03:01:06.576Z,97724.44
2022-10-06T03:03:35.021Z,97728.97
2022-10-06T03:06:02.597Z,97727.59
2022-10-06T03:08:29.399Z,97729.94
2022-10-06T03:10:59.657Z,97734.91
2022-10-06T03:13:26.063Z,97731.31
2022-10-06T03:15:52.427Z,97738.34
2022-10-06T03:18:18.830Z,97732.00
2022-10-06T03:20:45.152Z,97732.69
2022-10-06T03:23:13.548Z,97728.31
2022-10-06T03:25:40.089Z,97738.28
2022-10-06T03:28:06.546Z,97736.91
2022-10-06T03:30:32.956Z,97738.13
2022-10-06T03:33:01.774Z,97753.28
2022-10-06T03:35:28.192Z,97738.81
2022-10-06T03:37:54.619Z,97754.13
2022-10-06T03:40:20.936Z,97751.38
2022-10-06T03:42:47.252Z,97751.78
2022-10-06T03:45:13.662Z,97760.22
2022-10-06T03:47:39.989Z,97759.94
2022-10-06T03:50:06.593Z,97765.03
2022-10-06T03:52:33.221Z,97767.53
2022-10-06T03:54:59.538Z,97770.97
2022-10-06T03:57:25.905Z,97766.13
2022-10-06T03:59:52.327Z,97777.06
2022-10-06T04:02:18.780Z,97778.03
2022-10-06T04:04:50.920Z,97783.81
2022-10-06T04:07:17.318Z,97787.53
2022-10-06T04:09:43.633Z,97789.34
2022-10-06T04:12:10.454Z,97789.19
2022-10-06T04:14:37.223Z,97802.13
2022-10-06T04:17:03.585Z,97803.81
2022-10-06T04:19:29.941Z,97800.91
2022-10-06T04:21:56.272Z,97810.69
2022-10-06T04:24:22.701Z,97810.81
2022-10-06T04:26:49.965Z,97816.88
2022-10-06T04:29:16.330Z,97819.81
2022-10-06T04:31:43.186Z,97818.69
2022-10-06T04:34:10.868Z,97827.22
2022-10-06T04:36:39.493Z,97843.78
2022-10-06T04:39:06.204Z,97841.44
2022-10-06T04:41:34.321Z,97844.03
2022-10-06T04:44:01.144Z,97849.31
2022-10-06T04:46:42.700Z,97843.78
2022-10-06T04:49:13.551Z,97839.91
2022-10-06T04:51:44.245Z,97842.25
2022-10-06T04:54:12.616Z,97838.78
2022-10-06T04:56:38.937Z,97839.63
2022-10-06T04:59:05.280Z,97843.22
2022-10-06T05:01:32.458Z,97842.66
2022-10-06T05:03:59.538Z,97841.69
2022-10-06T05:06:48.821Z,97836.63
2022-10-06T05:09:15.933Z,97848.06
2022-10-06T05:11:42.397Z,97850.53
2022-10-06T05:14:23.922Z,97846.00
2022-10-06T05:16:50.526Z,97851.75
2022-10-06T05:19:16.968Z,97860.16
2022-10-06T05:21:43.309Z,97859.75
2022-10-06T05:24:09.669Z,97869.66
2022-10-06T05:26:36.872Z,97875.63
2022-10-06T05:29:03.525Z,97870.78
2022-10-06T05:31:35.171Z,97881.25
2022-10-06T05:34:07.838Z,97871.63
2022-10-06T05:36:34.326Z,97877.66
2022-10-06T05:39:07.194Z,97884.16
2022-10-06T05:41:34.020Z,97893.97
2022-10-06T05:44:00.425Z,97896.03
2022-10-06T05:46:28.555Z,97905.69
2022-10-06T05:48:56.505Z,97902.41
2022-10-06T05:51:29.361Z,97901.88
2022-10-06T05:53:56.920Z,97909.56
2022-10-06T05:56:30.904Z,97919.66
2022-10-06T05:58:57.785Z,97927.09
2022-10-06T06:01:38.251Z,97929.84
2022-10-06T06:04:06.596Z,97927.41
2022-10-06T06:06:35.239Z,97933.44
2022-10-06T06:09:18.185Z,97931.25
2022-10-06T06:11:45.729Z,97933.47
2022-10-06T06:14:16.232Z,97938.75
2022-10-06T06:16:43.268Z,97944.81
2022-10-06T06:19:10.787Z,97944.41
2022-10-06T06:21:37.136Z,97952.53
2022-10-06T06:24:04.276Z,97957.78
2022-10-06T06:26:32.098Z,97960.25
2022-10-06T06:29:06.205Z,97962.47
2022-10-06T06:31:43.683Z,97970.06
2022-10-06T06:34:12.033Z,97971.03
2022-10-06T06:36:41.057Z,97978.75
2022-10-06T06:39:09.552Z,97977.66
2022-10-06T06:41:38.017Z,97983.16
2022-10-06T06:44:04.704Z,97989.53
2022-10-06T06:49:04.748Z,97995.88
2022-10-06T06:51:40.183Z,98000.97
2022-10-06T06:54:07.259Z,97999.69
2022-10-06T06:56:35.547Z,98002.88
2022-10-06T06:59:02.807Z,98007.13
2022-10-06T07:01:29.186Z,98007.25
2022-10-06T07:03:58.009Z,98004.16
2022-10-06T07:06:28.570Z,98008.31
2022-10-06T07:08:56.076Z,98008.69
2022-10-06T07:11:24.149Z,98013.69
2022-10-06T07:13:54.651Z,98015.88
2022-10-06T07:16:40.643Z,98021.94
2022-10-06T07:19:25.693Z,98019.72
2022-10-06T07:22:15.623Z,98033.09
2022-10-06T07:25:00.925Z,98039.19
2022-10-06T07:27:28.691Z,98036.03
2022-10-06T07:29:56.685Z,98039.47
2022-10-06T07:32:29.520Z,98041.63
2022-10-06T07:34:58.602Z,98048.94
2022-10-06T07:37:25.515Z,98051.97
2022-10-06T07:39:56.867Z,98060.25
2022-10-06T07:42:23.579Z,98053.28
2022-10-06T07:45:08.636Z,98059.28
2022-10-06T07:47:38.155Z,98060.59
2022-10-06T07:50:08.250Z,98057.09
2022-10-06T07:52:36.479Z,98057.97
2022-10-06T07:55:02.951Z,98063.47
2022-10-06T07:57:32.681Z,98068.31
2022-10-06T08:00:03.085Z,98076.44
2022-10-06T08:02:34.709Z,98075.31
2022-10-06T08:05:02.516Z,98082.81
2022-10-06T08:07:28.929Z,98081.38
2022-10-06T08:09:55.326Z,98080.09
2022-10-06T08:12:33.902Z,98071.09
2022-10-06T08:15:07.076Z,98073.81
2022-10-06T08:17:35.369Z,98082.22
2022-10-06T08:20:01.913Z,98084.94
2022-10-06T08:22:30.089Z,98095.22
2022-10-06T08:25:05.782Z,98101.75
2022-10-06T08:27:34.915Z,98106.09
2022-10-06T08:30:01.676Z,98107.06
2022-10-06T08:32:28.058Z,98107.88
2022-10-06T08:34:54.603Z,98116.03
2022-10-06T08:37:23.740Z,98121.91
2022-10-06T08:39:51.108Z,98122.88
2022-10-06T08:42:24.807Z,98131.13
2022-10-06T08:44:58.203Z,98132.19
2022-10-06T08:47:27.260Z,98133.91
2022-10-06T08:50:00.143Z,98127.84
2022-10-06T08:52:46.894Z,98138.09
2022-10-06T08:55:32.414Z,98133.56
2022-10-06T08:58:07.987Z,98137.84
2022-10-06T09:00:34.412Z,98145.09
2022-10-06T09:03:03.763Z,98141.94
2022-10-06T09:05:31.858Z,98142.91
2022-10-06T09:08:18.039Z,98144.25
2022-10-06T09:10:53.799Z,98145.84
2022-10-06T09:13:25.375Z,98145.03
2022-10-06T09:16:07.428Z,98150.75
2022-10-06T09:18:56.505Z,98157.41
2022-10-06T09:21:35.287Z,98153.75
2022-10-06T09:24:05.215Z,98159.75
2022-10-06T09:26:41.018Z,98160.94
2022-10-06T09:29:07.331Z,98162.94
2022-10-06T09:31:37.956Z,98157.97
2022-10-06T09:34:12.907Z,98164.09
2022-10-06T09:37:05.748Z,98172.38
2022-10-06T09:39:36.308Z,98171.88
2022-10-06T09:42:15.145Z,98173.69
2022-10-06T09:44:42.199Z,98173.69
2022-10-06T09:47:25.133Z,98181.50
2022-10-06T09:50:20.361Z,98177.00
2022-10-06T09:53:03.366Z,98181.13
2022-10-06T09:55:39.885Z,98183.94
2022-10-06T09:58:20.634Z,98185.41
2022-10-06T10:00:51.344Z,98179.25
2022-10-06T10:03:18.127Z,98186.53
2022-10-06T10:05:49.608Z,98189.47
2022-10-06T10:08:15.932Z,98188.97
2022-10-06T10:10:44.296Z,98190.28
2022-10-06T10:13:19.490Z,98192.09
2022-10-06T10:15:52.353Z,98186.69
2022-10-06T10:18:22.933Z,98190.28
2022-10-06T10:21:06.087Z,98187.94
2022-10-06T10:23:43.394Z,98197.16
2022-10-06T10:26:35.617Z,98195.75
2022-10-06T10:29:11.042Z,98206.94
2022-10-06T10:31:51.745Z,98199.50
2022-10-06T10:34:27.184Z,98199.56
2022-10-06T10:37:10.174Z,98201.94
2022-10-06T10:39:48.291Z,98194.91
2022-10-06T10:42:18.952Z,98208.00
2022-10-06T10:44:56.323Z,98200.53
2022-10-06T10:47:29.217Z,98201.88
2022-10-06T10:50:16.250Z,98201.78
2022-10-06T10:52:44.385Z,98203.13
2022-10-06T10:55:17.957Z,98203.81
2022-10-06T10:57:46.870Z,98210.06
2022-10-06T11:00:28.066Z,98208.88
2022-10-06T11:02:56.688Z,98206.31
2022-10-06T11:05:30.432Z,98202.72
2022-10-06T11:08:02.165Z,98210.13
2022-10-06T11:10:32.077Z,98201.59
2022-10-06T11:13:10.981Z,98199.59
2022-10-06T11:15:55.960Z,98202.13
2022-10-06T11:18:43.433Z,98209.28
2022-10-06T11:21:25.205Z,98208.28
2022-10-06T11:23:53.548Z,98201.59
2022-10-06T11:26:29.063Z,98201.84
2022-10-06T11:29:08.739Z,98201.78
2022-10-06T11:31:48.204Z,98193.41
2022-10-06T11:34:14.619Z,98200.13
2022-10-06T11:37:04.033Z,98191.28
2022-10-06T11:39:57.887Z,98184.22
2022-10-06T11:42:34.379Z,98187.84
2022-10-06T11:45:14.908Z,98190.63
2022-10-06T11:47:44.383Z,98188.41
2022-10-06T11:50:29.779Z,98193.78
2022-10-06T11:52:56.115Z,98193.22
2022-10-06T11:55:24.024Z,98190.13
2022-10-06T11:58:23.550Z,98192.03
2022-10-06T12:00:54.629Z,98183.34
2022-10-06T12:03:45.318Z,98186.81
2022-10-06T12:06:30.689Z,98186.28
2022-10-06T12:08:57.001Z,98183.22
2022-10-06T12:11:39.451Z,98193.34
2022-10-06T12:15:31.891Z,98188.28
2022-10-06T12:17:16.814Z,98171.56
2022-10-06T12:20:08.514Z,98183.44
2022-10-06T12:22:40.902Z,98171.16
2022-10-06T12:25:28.002Z,98171.00
2022-10-06T12:28:17.366Z,98179.13
2022-10-06T12:30:55.076Z,98171.59
2022-10-06T12:33:34.647Z,98170.53
2022-10-06T12:36:05.177Z,98168.59
2022-10-06T12:38:33.646Z,98158.66
2022-10-06T12:41:01.621Z,98162.28
2022-10-06T12:43:32.863Z,98150.97
2022-10-06T12:46:07.982Z,98153.66
2022-10-06T12:48:37.215Z,98148.13
2022-10-06T12:51:06.576Z,98150.66
2022-10-06T12:53:37.883Z,98143.47
2022-10-06T12:56:05.943Z,98151.22
2022-10-06T12:58:33.837Z,98148.59
2022-10-06T13:01:01.281Z,98150.41
2022-10-06T13:03:28.880Z,98141.09
2022-10-06T13:05:57.806Z,98139.81
2022-10-06T13:08:28.400Z,98146.03
2022-10-06T13:11:13.862Z,98148.97
2022-10-06T13:13:47.251Z,98145.91
2022-10-06T13:16:14.849Z,98140.16
2022-10-06T13:18:41.784Z,98138.13
2022-10-06T13:21:14.229Z,98141.91
2022-10-06T13:23:40.598Z,98136.47
2022-10-06T13:26:06.895Z,98138.97
2022-10-06T13:28:34.246Z,98133.75
2022-10-06T13:31:22.034Z,98137.69
2022-10-06T13:34:12.631Z,98142.38
2022-10-06T13:36:40.216Z,98138.69
2022-10-06T13:39:11.874Z,98139.50
2022-10-06T13:41:43.570Z,98137.78
2022-10-06T13:44:16.804Z,98139.44
2022-10-06T13:46:45.944Z,98135.09
2022-10-06T13:49:25.369Z,98136.59
2022-10-06T13:51:56.881Z,98140.63
2022-10-06T13:55:00.823Z,98138.94
2022-10-06T13:57:36.632Z,98144.97
2022-10-06T14:00:12.327Z,98139.19
2022-10-06T14:02:38.883Z,98135.72
2022-10-06T14:05:24.133Z,98145.47
2022-10-06T14:07:50.802Z,98142.97
2022-10-06T14:10:28.168Z,98134.81
2022-10-06T14:12:54.900Z,98143.47
2022-10-06T14:15:24.357Z,98146.84
2022-10-06T14:17:58.728Z,98136.47
2022-10-06T14:20:41.629Z,98147.75
2022-10-06T14:23:26.884Z,98144.09
2022-10-06T14:25:53.269Z,98138.19
2022-10-06T14:28:19.630Z,98137.19
2022-10-06T14:30:47.041Z,98138.16
2022-10-06T14:33:13.441Z,98142.75
2022-10-06T14:35:39.885Z,98142.69
2022-10-06T14:38:06.198Z,98142.69
2022-10-06T14:40:32.512Z,98144.63
2022-10-06T14:42:59.887Z,98148.19
2022-10-06T14:45:26.209Z,98144.84
2022-10-06T14:47:52.566Z,98145.34
2022-10-06T14:50:18.894Z,98138.63
2022-10-06T14:52:46.747Z,98142.81
2022-10-06T14:55:13.135Z,98144.41
2022-10-06T14:57:39.751Z,98139.66
2022-10-06T15:00:08.703Z,98132.44
2022-10-06T15:02:36.293Z,98133.22
2022-10-06T15:05:02.657Z,98136.75
2022-10-06T15:08:03.176Z,98139.63
2022-10-06T15:10:30.226Z,98142.53
2022-10-06T15:12:57.184Z,98139.78
2022-10-06T15:15:23.607Z,98140.00
2022-10-06T15:17:50.013Z,98137.44
2022-10-06T15:20:17.717Z,98145.53
2022-10-06T15:22:44.520Z,98143.34
2022-10-06T15:25:29.859Z,98139.97
2022-10-06T15:28:15.895Z,98141.06
2022-10-06T15:30:43.926Z,98137.72
2022-10-06T15:33:10.251Z,98145.94
2022-10-06T15:35:36.593Z,98143.00
2022-10-06T15:38:02.918Z,98143.13
2022-10-06T15:40:29.229Z,98133.66
2022-10-06T15:42:55.556Z,98143.09
2022-10-06T15:45:21.993Z,98143.31
2022-10-06T15:47:48.476Z,98143.91
2022-10-06T15:50:18.637Z,98144.53
2022-10-06T15:52:45.850Z,98154.56
2022-10-06T15:55:12.259Z,98146.22
2022-10-06T15:57:38.660Z,98146.44
2022-10-06T16:00:05.348Z,98149.97
2022-10-06T16:02:35.530Z,98147.22
2022-10-06T16:05:02.158Z,98157.78
2022-10-06T16:07:31.381Z,98159.28
2022-10-06T16:09:58.236Z,98160.63
2022-10-06T16:12:25.218Z,98161.19
2022-10-06T16:14:51.853Z,98159.72
2022-10-06T16:17:20.333Z,98154.63
2022-10-06T16:19:47.098Z,98162.94
2022-10-06T16:22:18.090Z,98162.63
2022-10-06T16:24:44.426Z,98177.00
2022-10-06T16:27:11.618Z,98171.22
2022-10-06T16:29:40.216Z,98174.53
2022-10-06T16:32:10.822Z,98169.72
2022-10-06T16:34:37.158Z,98174.84
2022-10-06T16:37:03.727Z,98180.94
2022-10-06T16:39:30.067Z,98184.75
2022-10-06T16:41:56.761Z,98183.44
2022-10-06T16:44:23.151Z,98175.97
2022-10-06T16:46:52.767Z,98176.78
2022-10-06T16:49:19.673Z,98176.47
2022-10-06T16:51:46.181Z,98182.56
2022-10-06T16:54:13.444Z,98185.38
2022-10-06T16:56:48.206Z,98192.09
2022-10-06T16:59:14.631Z,98186.84
2022-10-06T17:01:41.261Z,98184.53
2022-10-06T17:04:15.118Z,98186.75
2022-10-06T17:06:44.295Z,98195.44
2022-10-06T17:09:14.062Z,98194.25
2022-10-06T17:11:45.267Z,98197.22
2022-10-06T17:14:12.039Z,98192.75
2022-10-06T17:16:46.197Z,98191.97
2022-10-06T17:19:13.698Z,98193.09
2022-10-06T17:21:46.851Z,98196.38
2022-10-06T17:24:22.709Z,98195.84
2022-10-06T17:26:49.477Z,98200.13
2022-10-06T17:29:27.193Z,98203.25
2022-10-06T17:31:56.546Z,98207.66
2022-10-06T17:34:26.436Z,98204.78
2022-10-06T17:36:59.425Z,98199.44
2022-10-06T17:39:28.880Z,98205.19
2022-10-06T17:42:05.281Z,98203.84
2022-10-06T17:44:31.856Z,98212.44
2022-10-06T17:47:00.137Z,98212.22
2022-10-06T17:49:37.497Z,98214.19
2022-10-06T17:52:05.813Z,98214.22
2022-10-06T17:54:32.530Z,98216.53
2022-10-06T17:56:59.284Z,98218.75
2022-10-06T17:59:39.855Z,98221.91
2022-10-06T18:02:18.102Z,98215.72
2022-10-06T18:04:50.326Z,98215.50
2022-10-06T18:07:17.880Z,98213.25
2022-10-06T18:10:04.175Z,98201.91
2022-10-06T18:12:36.146Z,98213.66
2022-10-06T18:15:05.897Z,98214.47
2022-10-06T18:17:34.313Z,98215.41
2022-10-06T18:20:13.384Z,98212.94
2022-10-06T18:22:40.048Z,98211.47
2022-10-06T18:25:06.820Z,98215.16
2022-10-06T18:27:35.331Z,98208.53
2022-10-06T18:30:01.909Z,98212.13
2022-10-06T18:38:14.134Z,98212.97
2022-10-06T18:40:40.714Z,98214.97
2022-10-06T18:43:09.168Z,98215.78
2022-10-06T18:45:54.258Z,98215.25
2022-10-06T18:48:41.375Z,98221.38
2022-10-06T18:51:07.694Z,98219.41
2022-10-06T18:53:36.314Z,98223.03
2022-10-06T18:56:02.620Z,98224.44
2022-10-06T18:58:28.937Z,98228.44
2022-10-06T19:00:55.966Z,98232.19
2022-10-06T19:03:23.620Z,98237.31
2022-10-06T19:05:54.117Z,98238.84
2022-10-06T19:08:20.464Z,98231.66
2022-10-06T19:11:06.881Z,98236.34
2022-10-06T19:13:33.510Z,98237.47
2022-10-06T19:16:00.036Z,98243.69
2022-10-06T19:18:40.505Z,98239.94
2022-10-06T19:21:09.663Z,98236.22
2022-10-06T19:23:36.967Z,98234.50
2022-10-06T19:26:06.099Z,98235.63
2022-10-06T19:28:33.201Z,98233.00
2022-10-06T19:31:04.437Z,98241.94
2022-10-06T19:33:31.680Z,98243.72
2022-10-06T19:36:00.342Z,98232.41
2022-10-06T19:38:27.542Z,98236.53
2022-10-06T19:40:53.937Z,98233.91
2022-10-06T19:43:21.601Z,98240.16
2022-10-06T19:45:57.661Z,98234.91
2022-10-06T19:48:33.232Z,98235.69
2022-10-06T19:50:59.537Z,98245.22
2022-10-06T19:53:25.899Z,98245.84
2022-10-06T19:55:59.870Z,98237.97
2022-10-06T19:58:26.174Z,98240.72
2022-10-06T20:00:52.497Z,98245.81
2022-10-06T20:03:20.690Z,98247.31
2022-10-06T20:05:47.066Z,98242.47
2022-10-06T20:08:13.429Z,98248.88
2022-10-06T20:10:39.836Z,98252.41
2022-10-06T20:13:06.671Z,98249.88
2022-10-06T20:15:34.471Z,98255.88
2022-10-06T20:18:02.075Z,98252.16
2022-10-06T20:20:28.395Z,98249.16
2022-10-06T20:22:54.790Z,98241.75
2022-10-06T20:25:21.534Z,98251.72
2022-10-06T20:27:48.800Z,98246.38
2022-10-06T20:30:15.154Z,98244.69
2022-10-06T20:32:41.579Z,98244.97
2022-10-06T20:35:08.675Z,98243.34
2022-10-06T20:37:35.058Z,98242.06
2022-10-06T20:40:20.105Z,98243.59
2022-10-06T20:42:49.355Z,98237.41
2022-10-06T20:45:15.805Z,98233.59
2022-10-06T20:47:42.479Z,98233.38
2022-10-06T20:50:09.352Z,98230.25
2022-10-06T20:52:36.228Z,98231.72
2022-10-06T20:55:04.381Z,98235.13
2022-10-06T20:57:44.033Z,98232.47
2022-10-06T21:00:10.808Z,98244.25
2022-10-06T21:02:37.276Z,98237.72
2022-10-06T21:05:03.898Z,98228.44
2022-10-06T21:07:30.347Z,98239.25
2022-10-06T21:09:56.951Z,98233.34
2022-10-06T21:12:23.470Z,98239.28
2022-10-06T21:14:50.043Z,98236.41
2022-10-06T21:17:16.521Z,98245.22
2022-10-06T21:19:50.035Z,98235.72
2022-10-06T21:22:16.671Z,98236.91
2022-10-06T21:24:43.215Z,98230.34
2022-10-06T21:27:09.711Z,98231.44
2022-10-06T21:29:36.490Z,98233.53
2022-10-06T21:32:02.944Z,98235.13
2022-10-06T21:34:29.458Z,98230.41
2022-10-06T21:36:56.105Z,98231.00
2022-10-06T21:39:22.539Z,98220.28
2022-10-06T21:41:49.019Z,98220.09
2022-10-06T21:44:16.388Z,98220.91
2022-10-06T21:46:49.200Z,98224.09
2022-10-06T21:49:16.860Z,98214.94
2022-10-06T21:51:45.809Z,98218.19
2022-10-06T21:54:13.040Z,98217.97
2022-10-06T21:56:40.081Z,98210.84
2022-10-06T21:59:07.131Z,98206.78
2022-10-06T22:01:38.151Z,98204.63
2022-10-06T22:04:05.719Z,98212.38
2022-10-06T22:06:33.402Z,98209.63
2022-10-06T22:09:01.315Z,98207.38
2022-10-06T22:11:32.100Z,98211.53
2022-10-06T22:14:02.284Z,98200.25
2022-10-06T22:16:30.348Z,98202.91
2022-10-06T22:18:57.151Z,98202.28
2022-10-06T22:21:24.726Z,98201.69
2022-10-06T22:23:58.979Z,98197.66
2022-10-06T22:26:26.199Z,98192.56
2022-10-06T22:28:53.527Z,98191.13
2022-10-06T22:31:25.557Z,98192.91
2022-10-06T22:33:53.974Z,98196.84
2022-10-06T22:36:20.455Z,98196.84
2022-10-06T22:38:47.266Z,98190.44
2022-10-06T22:41:14.008Z,98187.59
2022-10-06T22:43:40.980Z,98187.84
2022-10-06T22:46:16.903Z,98181.88
2022-10-06T22:48:43.399Z,98173.81
2022-10-06T22:51:09.851Z,98174.88
2022-10-06T22:53:36.379Z,98167.63
2022-10-06T22:56:03.833Z,98175.81
2022-10-06T22:58:30.427Z,98173.56
2022-10-06T23:01:17.394Z,98174.50
2022-10-06T23:03:44.028Z,98170.00
2022-10-06T23:06:11.804Z,98177.09
2022-10-06T23:08:38.663Z,98176.88
2022-10-06T23:11:06.949Z,98166.19
2022-10-06T23:13:33.532Z,98170.22
2022-10-06T23:16:10.384Z,98165.84
2022-10-06T23:18:37.932Z,98156.69
2022-10-06T23:21:05.683Z,98153.59
2022-10-06T23:23:32.595Z,98147.28
2022-10-06T23:26:09.412Z,98150.84
2022-10-06T23:28:36.222Z,98151.94
2022-10-06T23:31:04.501Z,98145.50
2022-10-06T23:33:32.622Z,98146.44
2022-10-06T23:35:59.679Z,98140.41
2022-10-06T23:38:26.195Z,98148.38
2022-10-06T23:40:52.871Z,98139.56
2022-10-06T23:43:19.443Z,98145.28
2022-10-06T23:45:46.069Z,98145.63
2022-10-06T23:48:12.635Z,98141.72
2022-10-06T23:50:39.115Z,98140.06
2022-10-06T23:53:06.868Z,98142.41
2022-10-06T23:55:33.491Z,98148.59
2022-10-06T23:57:59.917Z,98144.53
